createdAt,value
2018-09-28T00:01:07.661Z,5.80
2018-09-28T00:03:36.210Z,8.63
2018-09-28T00:06:04.702Z,6.53
2018-09-28T00:08:33.220Z,10.70
2018-09-28T00:11:01.765Z,9.70
2018-09-28T00:13:30.294Z,7.07
2018-09-28T00:15:58.798Z,9.87
2018-09-28T00:18:27.363Z,9.23
2018-09-28T00:20:55.901Z,9.17
2018-09-28T00:23:24.406Z,7.37
2018-09-28T00:25:52.966Z,8.10
2018-09-28T00:28:21.439Z,6.73
2018-09-28T00:30:50.249Z,7.17
2018-09-28T00:33:18.762Z,11.63
2018-09-28T00:35:47.289Z,6.80
2018-09-28T00:38:15.800Z,8.20
2018-09-28T00:40:44.313Z,12.53
2018-09-28T00:43:12.824Z,11.07
2018-09-28T00:45:41.332Z,16.27
2018-09-28T00:48:09.851Z,13.83
2018-09-28T00:50:38.345Z,10.17
2018-09-28T00:53:06.904Z,6.40
2018-09-28T00:55:35.412Z,9.67
2018-09-28T00:58:03.911Z,6.83
2018-09-28T01:00:32.457Z,11.13
2018-09-28T01:03:01.038Z,8.83
2018-09-28T01:05:29.575Z,10.63
2018-09-28T01:07:58.094Z,14.60
2018-09-28T01:10:26.626Z,15.60
2018-09-28T01:12:55.333Z,15.87
2018-09-28T01:15:23.836Z,11.07
2018-09-28T01:17:52.374Z,7.20
2018-09-28T01:20:21.135Z,13.40
2018-09-28T01:22:49.654Z,11.63
2018-09-28T01:25:18.138Z,13.20
2018-09-28T01:27:46.629Z,10.00
2018-09-28T01:30:15.201Z,7.30
2018-09-28T01:32:43.744Z,6.07
2018-09-28T01:35:12.242Z,7.03
2018-09-28T01:37:40.746Z,8.70
2018-09-28T01:40:09.233Z,9.13
2018-09-28T01:42:37.751Z,12.53
2018-09-28T01:45:06.279Z,8.20
2018-09-28T01:47:34.778Z,9.10
2018-09-28T01:50:03.666Z,8.90
2018-09-28T01:52:32.134Z,9.13
2018-09-28T01:55:00.957Z,5.63
2018-09-28T01:57:29.593Z,9.70
2018-09-28T01:59:58.170Z,13.97
2018-09-28T02:02:27.015Z,11.90
2018-09-28T02:04:55.543Z,8.13
2018-09-28T02:07:24.078Z,7.90
2018-09-28T02:09:52.627Z,11.67
2018-09-28T02:12:21.142Z,5.90
2018-09-28T02:14:49.645Z,7.73
2018-09-28T02:17:18.107Z,11.33
2018-09-28T02:19:46.587Z,5.97
2018-09-28T02:22:15.109Z,8.07
2018-09-28T02:24:43.596Z,6.23
2018-09-28T02:27:12.182Z,6.63
2018-09-28T02:29:40.750Z,11.93
2018-09-28T02:32:09.247Z,7.20
2018-09-28T02:34:37.779Z,5.90
2018-09-28T02:37:06.676Z,6.60
2018-09-28T02:39:35.166Z,11.13
2018-09-28T02:42:03.679Z,8.00
2018-09-28T02:44:32.199Z,12.10
2018-09-28T02:47:00.710Z,6.90
2018-09-28T02:49:29.221Z,9.93
2018-09-28T02:51:57.746Z,9.23
2018-09-28T02:54:26.239Z,11.07
2018-09-28T02:56:54.790Z,6.87
2018-09-28T02:59:23.305Z,7.13
2018-09-28T03:01:51.816Z,11.67
2018-09-28T03:04:20.307Z,11.80
2018-09-28T03:06:48.804Z,5.50
2018-09-28T03:09:17.294Z,8.57
2018-09-28T03:11:45.811Z,9.73
2018-09-28T03:14:14.319Z,8.20
2018-09-28T03:16:42.933Z,7.97
2018-09-28T03:19:11.452Z,6.80
2018-09-28T03:21:39.986Z,16.10
2018-09-28T03:24:08.498Z,9.70
2018-09-28T03:26:37.032Z,10.60
2018-09-28T03:29:05.551Z,9.73
2018-09-28T03:31:34.098Z,9.90
2018-09-28T03:34:02.642Z,12.73
2018-09-28T03:36:31.207Z,9.90
2018-09-28T03:38:59.748Z,12.90
2018-09-28T03:41:28.269Z,12.80
2018-09-28T03:43:56.757Z,10.77
2018-09-28T03:46:25.275Z,8.60
2018-09-28T03:48:53.783Z,10.20
2018-09-28T03:51:22.275Z,9.27
2018-09-28T03:53:50.791Z,12.93
2018-09-28T03:56:19.294Z,12.03
2018-09-28T03:58:47.796Z,14.30
2018-09-28T04:01:16.287Z,12.37
2018-09-28T04:03:44.763Z,10.97
2018-09-28T04:06:13.405Z,12.00
2018-09-28T04:08:41.896Z,13.00
2018-09-28T04:11:10.402Z,10.27
2018-09-28T04:13:38.879Z,18.43
2018-09-28T04:16:07.422Z,13.10
2018-09-28T04:18:35.939Z,11.50
2018-09-28T04:21:04.482Z,8.87
2018-09-28T04:23:33.003Z,10.13
2018-09-28T04:26:01.479Z,9.23
2018-09-28T04:28:29.979Z,10.10
2018-09-28T04:30:58.482Z,10.00
2018-09-28T04:33:27.048Z,18.37
2018-09-28T04:35:55.536Z,11.37
2018-09-28T04:38:24.068Z,8.40
2018-09-28T04:40:52.605Z,9.53
2018-09-28T04:43:21.082Z,9.30
2018-09-28T04:45:49.569Z,13.17
2018-09-28T04:48:18.074Z,8.90
2018-09-28T04:50:46.683Z,11.10
2018-09-28T04:53:15.153Z,11.43
2018-09-28T04:55:43.717Z,10.03
2018-09-28T04:58:12.303Z,7.93
2018-09-28T05:00:40.868Z,9.17
2018-09-28T05:03:09.425Z,10.67
2018-09-28T05:05:37.932Z,14.07
2018-09-28T05:08:06.484Z,10.60
2018-09-28T05:10:35.019Z,9.77
2018-09-28T05:13:03.574Z,14.83
2018-09-28T05:15:32.086Z,9.33
2018-09-28T05:18:00.631Z,16.40
2018-09-28T05:20:29.180Z,11.53
2018-09-28T05:22:57.785Z,18.10
2018-09-28T05:25:26.395Z,14.63
2018-09-28T05:27:54.869Z,15.73
2018-09-28T05:30:23.418Z,11.77
2018-09-28T05:32:52.059Z,14.53
2018-09-28T05:35:20.508Z,15.70
2018-09-28T05:37:49.036Z,11.50
2018-09-28T05:40:17.594Z,13.40
2018-09-28T05:42:46.123Z,10.70
2018-09-28T05:45:14.698Z,15.03
2018-09-28T05:47:43.233Z,13.13
2018-09-28T05:50:11.806Z,16.57
2018-09-28T05:52:40.354Z,15.53
2018-09-28T05:55:08.934Z,16.57
2018-09-28T05:57:37.455Z,11.27
2018-09-28T06:00:11.326Z,9.40
2018-09-28T06:02:45.276Z,7.50
2018-09-28T06:05:19.177Z,9.00
2018-09-28T06:07:47.666Z,10.37
2018-09-28T06:10:16.221Z,16.43
2018-09-28T06:12:44.790Z,12.57
2018-09-28T06:15:13.335Z,8.00
2018-09-28T06:17:41.843Z,11.53
2018-09-28T06:20:10.358Z,10.63
2018-09-28T06:22:38.907Z,11.50
2018-09-28T06:25:07.475Z,7.57
2018-09-28T06:27:36.035Z,8.23
2018-09-28T06:30:04.733Z,9.20
2018-09-28T06:32:33.217Z,9.17
2018-09-28T06:35:01.745Z,9.87
2018-09-28T06:37:30.287Z,9.03
2018-09-28T06:39:58.787Z,11.30
2018-09-28T06:42:27.331Z,7.03
2018-09-28T06:44:55.840Z,7.00
2018-09-28T06:47:24.410Z,8.57
2018-09-28T06:49:52.935Z,8.83
2018-09-28T06:52:21.498Z,10.47
2018-09-28T06:54:50.029Z,9.23
2018-09-28T06:57:18.633Z,6.70
2018-09-28T06:59:47.203Z,9.73
2018-09-28T07:02:15.959Z,11.20
2018-09-28T07:04:44.741Z,9.53
2018-09-28T07:07:13.291Z,11.90
2018-09-28T07:09:41.807Z,12.13
2018-09-28T07:12:10.470Z,14.00
2018-09-28T07:14:38.971Z,9.37
2018-09-28T07:17:07.857Z,9.93
2018-09-28T07:19:36.503Z,9.90
2018-09-28T07:22:05.039Z,7.50
2018-09-28T07:24:33.601Z,11.40
2018-09-28T07:27:02.101Z,12.67
2018-09-28T07:29:30.667Z,8.63
2018-09-28T07:31:59.210Z,10.30
2018-09-28T07:34:27.826Z,9.13
2018-09-28T07:36:56.475Z,10.50
2018-09-28T07:39:24.932Z,13.27
2018-09-28T07:41:53.509Z,12.80
2018-09-28T07:44:22.037Z,11.80
2018-09-28T07:46:50.568Z,14.77
2018-09-28T07:49:19.233Z,14.00
2018-09-28T07:51:47.746Z,17.00
2018-09-28T07:54:16.278Z,13.17
2018-09-28T07:56:45.088Z,14.77
2018-09-28T07:59:13.675Z,16.43
2018-09-28T08:01:42.183Z,11.47
2018-09-28T08:04:10.715Z,13.97
2018-09-28T08:06:39.244Z,15.07
2018-09-28T08:09:09.276Z,17.13
2018-09-28T08:11:37.846Z,14.37
2018-09-28T08:14:06.884Z,14.83
2018-09-28T08:16:35.396Z,12.37
2018-09-28T08:19:04.102Z,22.83
2018-09-28T08:21:32.656Z,12.00
2018-09-28T08:24:02.374Z,11.17
2018-09-28T08:26:30.966Z,19.83
2018-09-28T08:28:59.490Z,15.37
2018-09-28T08:31:28.002Z,21.70
2018-09-28T08:33:56.532Z,16.93
2018-09-28T08:36:25.129Z,15.90
2018-09-28T08:38:53.668Z,18.50
2018-09-28T08:41:22.203Z,17.50
2018-09-28T08:43:50.712Z,15.77
2018-09-28T08:46:19.451Z,24.77
2018-09-28T08:48:47.981Z,19.13
2018-09-28T08:51:16.523Z,27.50
2018-09-28T08:53:45.085Z,18.83
2018-09-28T08:56:13.601Z,22.37
2018-09-28T08:58:42.185Z,21.03
2018-09-28T09:01:10.728Z,38.73
2018-09-28T09:03:39.300Z,39.83
2018-09-28T09:06:07.831Z,36.50
2018-09-28T09:08:36.346Z,35.17
2018-09-28T09:11:04.867Z,46.53
2018-09-28T09:13:33.422Z,34.50
2018-09-28T09:16:01.972Z,42.40
2018-09-28T09:18:30.505Z,37.20
2018-09-28T09:20:59.157Z,45.83
2018-09-28T09:23:27.715Z,37.90
2018-09-28T09:25:56.247Z,42.27
2018-09-28T09:28:24.843Z,51.03
2018-09-28T09:30:53.390Z,51.67
2018-09-28T09:33:21.941Z,46.70
2018-09-28T09:35:50.444Z,51.10
2018-09-28T09:38:18.989Z,54.07
2018-09-28T09:40:47.511Z,50.30
2018-09-28T09:43:16.071Z,58.60
2018-09-28T09:45:44.636Z,50.00
2018-09-28T09:48:13.185Z,52.97
2018-09-28T09:50:41.682Z,65.27
2018-09-28T09:53:10.242Z,56.63
2018-09-28T09:55:38.821Z,49.93
2018-09-28T09:58:07.439Z,65.30
2018-09-28T10:00:41.352Z,59.70
2018-09-28T10:03:15.185Z,61.87
2018-09-28T10:05:43.773Z,61.23
2018-09-28T10:08:12.358Z,61.83
2018-09-28T10:10:40.940Z,54.97
2018-09-28T10:13:09.487Z,61.20
2018-09-28T10:15:38.030Z,58.17
2018-09-28T10:18:06.662Z,57.73
2018-09-28T10:20:35.255Z,60.90
2018-09-28T10:23:03.827Z,62.30
2018-09-28T10:25:32.406Z,72.53
2018-09-28T10:28:00.997Z,67.87
2018-09-28T10:30:29.538Z,65.43
2018-09-28T10:32:58.094Z,61.57
2018-09-28T10:35:26.619Z,65.53
2018-09-28T10:37:55.174Z,66.97
2018-09-28T10:40:23.782Z,69.13
2018-09-28T10:42:52.218Z,62.17
2018-09-28T10:45:20.859Z,70.10
2018-09-28T10:47:49.640Z,70.13
2018-09-28T10:50:18.200Z,67.23
2018-09-28T10:52:46.807Z,72.63
2018-09-28T10:55:15.375Z,74.00
2018-09-28T10:57:43.945Z,76.40
2018-09-28T11:00:12.517Z,69.73
2018-09-28T11:02:41.075Z,80.53
2018-09-28T11:05:09.627Z,71.33
2018-09-28T11:07:38.157Z,71.23
2018-09-28T11:10:06.729Z,73.13
2018-09-28T11:12:35.276Z,68.00
2018-09-28T11:15:03.969Z,74.63
2018-09-28T11:17:32.528Z,78.77
2018-09-28T11:20:01.069Z,72.50
2018-09-28T11:22:29.614Z,64.13
2018-09-28T11:24:58.203Z,65.60
2018-09-28T11:27:26.780Z,67.40
2018-09-28T11:29:55.303Z,74.27
2018-09-28T11:32:23.840Z,73.47
2018-09-28T11:34:52.393Z,60.53
2018-09-28T11:37:20.930Z,75.67
2018-09-28T11:39:49.517Z,87.03
2018-09-28T11:42:17.987Z,73.07
2018-09-28T11:44:46.604Z,70.27
2018-09-28T11:47:15.216Z,62.37
2018-09-28T11:49:43.779Z,62.07
2018-09-28T11:52:12.322Z,51.80
2018-09-28T11:54:40.873Z,38.33
2018-09-28T11:57:09.386Z,43.13
2018-09-28T11:59:37.969Z,38.10
2018-09-28T12:02:06.486Z,35.93
2018-09-28T12:04:35.006Z,35.63
2018-09-28T12:07:03.557Z,34.40
2018-09-28T12:09:32.088Z,33.30
2018-09-28T12:12:00.598Z,40.33
2018-09-28T12:14:29.142Z,30.10
2018-09-28T12:16:57.652Z,30.77
2018-09-28T12:19:26.635Z,32.90
2018-09-28T12:21:55.133Z,34.40
2018-09-28T12:24:23.863Z,30.60
2018-09-28T12:26:52.321Z,25.73
2018-09-28T12:29:20.835Z,31.33
2018-09-28T12:31:49.451Z,27.40
2018-09-28T12:34:17.953Z,29.40
2018-09-28T12:36:46.543Z,29.93
2018-09-28T12:39:15.165Z,30.67
2018-09-28T12:41:43.614Z,26.73
2018-09-28T12:44:12.127Z,28.20
2018-09-28T12:46:40.655Z,23.17
2018-09-28T12:49:09.172Z,21.30
2018-09-28T12:51:37.867Z,15.77
2018-09-28T12:54:06.537Z,19.00
2018-09-28T12:56:35.050Z,14.63
2018-09-28T12:59:03.555Z,22.80
2018-09-28T13:01:32.087Z,21.30
2018-09-28T13:04:00.588Z,23.07
2018-09-28T13:06:29.086Z,18.40
2018-09-28T13:08:57.705Z,22.07
2018-09-28T13:11:26.285Z,16.40
2018-09-28T13:13:54.850Z,19.37
2018-09-28T13:16:23.534Z,19.90
2018-09-28T13:18:52.158Z,19.83
2018-09-28T13:21:20.605Z,17.20
2018-09-28T13:23:49.162Z,15.60
2018-09-28T13:26:17.721Z,16.20
2018-09-28T13:28:46.183Z,12.43
2018-09-28T13:31:14.683Z,19.30
2018-09-28T13:33:43.240Z,9.07
2018-09-28T13:36:11.877Z,27.73
2018-09-28T13:38:40.557Z,24.90
2018-09-28T13:41:08.982Z,12.07
2018-09-28T13:43:37.517Z,14.50
2018-09-28T13:46:06.289Z,13.23
2018-09-28T13:48:34.845Z,16.90
2018-09-28T13:51:03.914Z,14.23
2018-09-28T13:53:32.446Z,18.37
2018-09-28T13:56:00.965Z,16.00
2018-09-28T13:58:29.502Z,12.13
2018-09-28T14:00:58.024Z,11.87
2018-09-28T14:03:26.618Z,15.77
2018-09-28T14:05:55.169Z,13.20
2018-09-28T14:08:24.353Z,18.97
2018-09-28T14:10:52.843Z,14.23
2018-09-28T14:13:21.407Z,10.70
2018-09-28T14:15:49.947Z,12.30
2018-09-28T14:18:18.488Z,16.67
2018-09-28T14:20:47.075Z,11.80
2018-09-28T14:23:15.611Z,12.47
2018-09-28T14:25:44.189Z,12.27
2018-09-28T14:28:12.780Z,14.50
2018-09-28T14:30:41.351Z,10.63
2018-09-28T14:33:09.901Z,11.13
2018-09-28T14:35:38.460Z,12.57
2018-09-28T14:38:07.170Z,9.23
2018-09-28T14:40:35.734Z,13.43
2018-09-28T14:43:04.263Z,15.30
2018-09-28T14:45:32.831Z,13.10
2018-09-28T14:48:01.360Z,14.67
2018-09-28T14:50:29.990Z,7.20
2018-09-28T14:52:58.492Z,9.90
2018-09-28T14:55:27.118Z,9.57
2018-09-28T14:57:55.642Z,10.23
2018-09-28T15:00:24.276Z,6.40
2018-09-28T15:02:52.740Z,12.33
2018-09-28T15:05:21.329Z,7.37
2018-09-28T15:07:49.878Z,14.97
2018-09-28T15:10:18.505Z,15.27
2018-09-28T15:12:47.077Z,8.27
2018-09-28T15:15:15.623Z,11.30
2018-09-28T15:17:44.167Z,10.40
2018-09-28T15:20:12.704Z,17.50
2018-09-28T15:22:41.293Z,11.20
2018-09-28T15:25:09.868Z,13.80
2018-09-28T15:27:38.412Z,11.10
2018-09-28T15:30:07.621Z,11.83
2018-09-28T15:32:36.393Z,14.57
2018-09-28T15:35:04.961Z,15.77
2018-09-28T15:37:33.555Z,16.73
2018-09-28T15:40:02.154Z,13.90
2018-09-28T15:42:30.711Z,15.87
2018-09-28T15:44:59.251Z,14.63
2018-09-28T15:47:27.763Z,18.93
2018-09-28T15:49:56.305Z,11.33
2018-09-28T15:52:25.503Z,19.17
2018-09-28T15:54:54.121Z,14.17
2018-09-28T15:57:22.654Z,18.87
2018-09-28T15:59:51.246Z,15.17
2018-09-28T16:02:19.826Z,13.07
2018-09-28T16:04:48.751Z,19.13
2018-09-28T16:07:17.310Z,23.13
2018-09-28T16:09:45.863Z,18.60
2018-09-28T16:12:14.489Z,17.57
2018-09-28T16:14:43.058Z,10.73
2018-09-28T16:17:11.993Z,24.60
2018-09-28T16:19:40.524Z,20.43
2018-09-28T16:22:09.061Z,14.27
2018-09-28T16:24:37.610Z,23.13
2018-09-28T16:27:06.134Z,18.47
2018-09-28T16:29:34.755Z,11.90
2018-09-28T16:32:03.282Z,17.17
2018-09-28T16:34:31.819Z,25.60
2018-09-28T16:37:00.336Z,16.50
2018-09-28T16:39:35.288Z,26.20
2018-09-28T16:42:03.834Z,24.40
2018-09-28T16:44:32.405Z,17.40
2018-09-28T16:47:00.926Z,20.30
2018-09-28T16:49:29.463Z,28.13
2018-09-28T16:51:57.995Z,21.53
2018-09-28T16:54:26.570Z,12.30
2018-09-28T16:56:55.138Z,22.30
2018-09-28T16:59:23.681Z,25.27
2018-09-28T17:01:52.262Z,18.60
2018-09-28T17:04:20.826Z,31.17
2018-09-28T17:06:49.358Z,20.07
2018-09-28T17:09:18.024Z,12.03
2018-09-28T17:11:46.553Z,19.73
2018-09-28T17:14:15.067Z,25.20
2018-09-28T17:16:43.639Z,22.83
2018-09-28T17:19:12.164Z,30.30
2018-09-28T17:21:40.696Z,24.00
2018-09-28T17:24:09.210Z,18.93
2018-09-28T17:26:37.773Z,22.93
2018-09-28T17:29:06.296Z,25.67
2018-09-28T17:31:34.868Z,29.60
2018-09-28T17:34:09.957Z,24.63
2018-09-28T17:36:38.560Z,18.10
2018-09-28T17:39:10.947Z,32.60
2018-09-28T17:41:39.571Z,18.27
2018-09-28T17:44:08.629Z,28.83
2018-09-28T17:46:37.142Z,16.70
2018-09-28T17:49:05.874Z,24.10
2018-09-28T17:51:34.413Z,25.67
2018-09-28T17:54:02.962Z,18.80
2018-09-28T17:56:31.468Z,37.83
2018-09-28T17:59:00.124Z,28.47
2018-09-28T18:01:28.741Z,28.77
2018-09-28T18:04:03.951Z,26.43
2018-09-28T18:06:32.628Z,20.43
2018-09-28T18:09:01.149Z,20.67
2018-09-28T18:11:29.770Z,21.33
2018-09-28T18:13:58.334Z,18.23
2018-09-28T18:16:26.894Z,16.60
2018-09-28T18:18:55.426Z,18.37
2018-09-28T18:21:24.058Z,19.87
2018-09-28T18:23:52.568Z,18.90
2018-09-28T18:26:21.201Z,18.87
2018-09-28T18:28:49.725Z,16.77
2018-09-28T18:31:18.243Z,16.73
2018-09-28T18:33:47.301Z,17.53
2018-09-28T18:36:15.883Z,19.43
2018-09-28T18:38:44.433Z,10.70
2018-09-28T18:41:12.922Z,9.70
2018-09-28T18:43:41.415Z,21.27
2018-09-28T18:46:10.047Z,15.97
2018-09-28T18:48:38.640Z,8.83
2018-09-28T18:51:07.174Z,16.73
2018-09-28T18:53:35.675Z,10.20
2018-09-28T18:56:04.249Z,16.47
2018-09-28T18:58:32.854Z,27.10
2018-09-28T19:01:01.492Z,12.03
2018-09-28T19:03:30.079Z,14.00
2018-09-28T19:05:58.712Z,23.07
2018-09-28T19:08:27.259Z,20.17
2018-09-28T19:10:55.826Z,19.10
2018-09-28T19:13:24.364Z,22.03
2018-09-28T19:15:52.905Z,20.57
2018-09-28T19:18:21.405Z,21.37
2018-09-28T19:20:49.918Z,25.23
2018-09-28T19:23:18.418Z,15.50
2018-09-28T19:25:47.004Z,14.43
2018-09-28T19:28:15.529Z,19.10
2018-09-28T19:30:44.132Z,21.50
2018-09-28T19:33:12.630Z,16.93
2018-09-28T19:35:41.146Z,13.30
2018-09-28T19:38:09.657Z,21.33
2018-09-28T19:40:38.187Z,16.50
2018-09-28T19:43:06.726Z,22.63
2018-09-28T19:45:35.260Z,12.80
2018-09-28T19:48:03.857Z,13.43
2018-09-28T19:50:32.358Z,18.47
2018-09-28T19:53:00.869Z,26.03
2018-09-28T19:55:29.426Z,26.07
2018-09-28T19:57:58.015Z,21.17
2018-09-28T20:00:26.532Z,23.90
2018-09-28T20:02:55.054Z,17.83
2018-09-28T20:05:23.576Z,20.60
2018-09-28T20:07:52.316Z,15.73
2018-09-28T20:10:20.859Z,26.53
2018-09-28T20:12:49.358Z,16.33
2018-09-28T20:15:18.283Z,15.97
2018-09-28T20:17:46.828Z,8.73
2018-09-28T20:20:16.649Z,19.90
2018-09-28T20:22:45.155Z,21.03
2018-09-28T20:25:13.670Z,23.60
2018-09-28T20:27:42.204Z,26.23
2018-09-28T20:30:10.779Z,8.63
2018-09-28T20:32:39.381Z,23.27
2018-09-28T20:35:07.973Z,26.17
2018-09-28T20:37:36.610Z,12.13
2018-09-28T20:40:05.419Z,18.60
2018-09-28T20:42:33.984Z,14.43
2018-09-28T20:45:03.027Z,24.90
2018-09-28T20:47:31.579Z,15.80
2018-09-28T20:50:00.426Z,18.57
2018-09-28T20:52:28.937Z,12.00
2018-09-28T20:54:57.508Z,26.87
2018-09-28T20:57:26.024Z,17.03
2018-09-28T20:59:57.328Z,14.97
2018-09-28T21:02:25.848Z,18.97
2018-09-28T21:04:54.397Z,14.23
2018-09-28T21:07:23.289Z,18.03
2018-09-28T21:09:51.782Z,18.97
2018-09-28T21:12:20.285Z,16.47
2018-09-28T21:14:54.936Z,13.17
2018-09-28T21:17:23.550Z,13.73
2018-09-28T21:19:56.214Z,13.07
2018-09-28T21:22:24.739Z,14.20
2018-09-28T21:24:53.225Z,19.77
2018-09-28T21:27:23.970Z,14.10
2018-09-28T21:29:52.466Z,18.70
2018-09-28T21:32:21.066Z,25.70
2018-09-28T21:34:49.572Z,20.20
2018-09-28T21:37:19.694Z,30.17
2018-09-28T21:39:48.312Z,33.90
2018-09-28T21:42:16.818Z,20.87
2018-09-28T21:44:45.350Z,18.00
2018-09-28T21:47:13.898Z,26.43
2018-09-28T21:49:42.382Z,18.10
2018-09-28T21:52:10.899Z,27.50
2018-09-28T21:54:39.389Z,28.70
2018-09-28T21:57:07.939Z,28.30
2018-09-28T21:59:36.482Z,18.73
2018-09-28T22:02:04.998Z,25.13
2018-09-28T22:04:33.487Z,18.40
2018-09-28T22:07:02.017Z,27.80
2018-09-28T22:09:30.501Z,25.10
2018-09-28T22:11:59.021Z,22.53
2018-09-28T22:14:27.516Z,20.80
2018-09-28T22:16:56.161Z,18.57
2018-09-28T22:19:24.742Z,22.90
2018-09-28T22:21:53.310Z,26.87
2018-09-28T22:24:21.842Z,14.20
2018-09-28T22:26:50.384Z,25.83
2018-09-28T22:29:18.906Z,26.90
2018-09-28T22:31:47.433Z,20.13
2018-09-28T22:34:15.946Z,16.17
2018-09-28T22:36:44.631Z,23.37
2018-09-28T22:39:13.267Z,24.50
2018-09-28T22:41:41.794Z,30.77
2018-09-28T22:44:10.299Z,21.13
2018-09-28T22:46:39.006Z,16.73
2018-09-28T22:49:07.691Z,29.53
2018-09-28T22:51:36.306Z,28.63
2018-09-28T22:54:04.843Z,13.60
2018-09-28T22:56:33.416Z,13.80
2018-09-28T22:59:02.111Z,22.63
2018-09-28T23:01:30.649Z,29.13
2018-09-28T23:03:59.240Z,25.20
2018-09-28T23:06:27.998Z,11.70
2018-09-28T23:08:56.492Z,17.33
2018-09-28T23:11:24.987Z,16.77
2018-09-28T23:13:53.495Z,16.63
2018-09-28T23:16:22.049Z,14.37
2018-09-28T23:18:50.554Z,26.13
2018-09-28T23:21:19.086Z,24.60
2018-09-28T23:23:47.607Z,21.03
2018-09-28T23:26:16.121Z,15.80
2018-09-28T23:28:44.616Z,21.83
2018-09-28T23:31:13.139Z,15.50
2018-09-28T23:33:41.625Z,13.40
2018-09-28T23:36:10.158Z,12.27
2018-09-28T23:38:38.717Z,23.50
2018-09-28T23:41:07.303Z,15.37
2018-09-28T23:43:35.817Z,13.37
2018-09-28T23:46:04.351Z,15.80
2018-09-28T23:48:32.858Z,17.27
2018-09-28T23:51:01.375Z,17.03
2018-09-28T23:53:29.868Z,16.17
2018-09-28T23:55:58.398Z,11.67
2018-09-28T23:58:27.158Z,21.03
